Colonia Baron, Argentina
Current Conditions -  °F | °C
As of 9:00 PM on Saturday 20 Dec 2014 (Local Time) from SAOC Reporting Station
Broken Clouds Broken Clouds  
Wind Chill: 64°   Ceiling: 10000
Heat Index: 64°   Visibility: 6mi
Dew Point: 36°   Wind: 21mph
Humidity: 34%   Direction: 180°S
Pressure: 29.77"   Gusts: NA
Location:  36.15°S, 63.85°W
Report Text: SAOC 210000Z 18018KT 9999 SCT030 BKN10018/02 Q1008
Loading
Personal Weather Stations






























Interactive Weather Map New forecast layout! Learn more

10-Day Weather Forecast

Advertisements
Track Severe Weather on mobile